Valente Venus — 3EOC7 — position and weather

sailwx.info

Track history (hours):
 
Tides and Currents Weather Stations Pressure Air Temp Water Temp Dewpoint Dewpoint Depression Visibility Wind Speed Wind Dir Waves Ship Positions

Valente Venus

Last reported at 2017-Nov-07 20:50 UTC. Time now 2017-Nov-19 21:52 UTC.
Position N 30°57' E 123°14'.
Warning: this ship's position is 12 days out of date.

Length 161 m; draft 6.5 m.

Type: Cargo ship. MMSI: 354905000.

Date/timePositionNaut miles runAvg speedWind from/ knotsBaromVisibWave heightAir tempDewpointWater temp
2017-Nov-07 20:50N 30°57' E 123°14'513.4
2017-Nov-07 20:27N 30°58' E 123°08'2612.2
2017-Nov-07 18:18N 30°58' E 122°37'412.2
2017-Nov-07 17:57N 30°58' E 122°33'511.2
2017-Nov-07 17:30N 31°00' E 122°27'510.2
2017-Nov-07 17:00N 31°01' E 122°21'5 9.8
2017-Nov-07 16:29N 31°02' E 122°15'4 8.5
2017-Nov-07 15:59N 31°03' E 122°10'3 6.8
2017-Nov-07 15:30N 31°03' E 122°07'5 8.9
2017-Nov-07 15:00N 31°05' E 122°02'4 7.9
2017-Nov-07 14:30N 31°06' E 121°57'510.2
2017-Nov-07 14:00N 31°09' E 121°53'714.4
2017-Nov-07 13:31N 31°14' E 121°47'612.9
2017-Nov-07 13:00N 31°19' E 121°42'510.6
2017-Nov-07 12:31N 31°22' E 121°37'510.4
2017-Nov-07 12:00N 31°25' E 121°31'4 7.9
2017-Nov-07 11:30N 31°27' E 121°28'611.6
2017-Nov-07 11:00N 31°31' E 121°23'713.0
2017-Nov-07 10:30N 31°36' E 121°17'714.0
2017-Nov-07 10:00N 31°41' E 121°11'611.4
2017-Nov-07 09:30N 31°44' E 121°06'611.2
2017-Nov-07 09:00N 31°47' E 121°00'610.0
2017-Nov-07 08:26N 31°49' E 120°54'4 9.9
2017-Nov-07 08:00N 31°54' E 120°53'5 9.6
2017-Nov-07 07:29N 31°58' E 120°51'5 8.6
2017-Nov-07 06:57N 32°01' E 120°46'1210.9
2017-Nov-07 05:53N 32°01' E 120°33'612.8
2017-Nov-07 05:25N 32°02' E 120°25'  
2017-Nov-04 01:55N 32°01' E 120°24'3 7.1
2017-Nov-04 01:28N 32°02' E 120°27'3 7.5
2017-Nov-04 01:00N 32°02' E 120°31'26 7.5
2017-Nov-03 21:33N 31°47' E 120°57'0 9.2
2017-Nov-03 21:30N 31°47' E 120°57'5 8.8
2017-Nov-03 20:59N 31°46' E 121°02'4 8.8
2017-Nov-03 20:30N 31°44' E 121°07'5 9.1
2017-Nov-03 20:00N 31°41' E 121°11'5 9.7
2017-Nov-03 19:30N 31°38' E 121°15'510.0
2017-Nov-03 19:00N 31°34' E 121°19'510.3
2017-Nov-03 18:30N 31°31' E 121°23'510.0
2017-Nov-03 18:00N 31°28' E 121°28'4 7.1
2017-Nov-03 17:30N 31°25' E 121°31'5 9.8
2017-Nov-03 17:00N 31°23' E 121°36'5 9.5
2017-Nov-03 16:30N 31°21' E 121°41'3 7.0
2017-Nov-03 16:00N 31°18' E 121°43'611.2
2017-Nov-03 15:30N 31°14' E 121°48'612.4
2017-Nov-03 15:00N 31°09' E 121°53'611.8
2017-Nov-03 14:30N 31°06' E 121°59'5 9.4
2017-Nov-03 14:00N 31°05' E 122°04'3 5.3
2017-Nov-03 13:30N 31°04' E 122°07'28 4.7
2017-Nov-03 07:28N 31°11' E 122°39'0 0.0
2017-Nov-03 03:46N 31°11' E 122°39'0 0.0
2017-Nov-03 03:28N 31°11' E 122°39'0 0.1
2017-Nov-03 02:58N 31°11' E 122°39'0 0.0
2017-Nov-03 02:25N 31°11' E 122°39'0 0.1
2017-Nov-03 01:55N 31°11' E 122°39'0 0.0
2017-Nov-03 00:49N 31°11' E 122°39'0 0.0
2017-Nov-03 00:16N 31°11' E 122°39'0 0.1
2017-Nov-02 23:49N 31°11' E 122°39'0 0.1
2017-Nov-02 21:25N 31°11' E 122°39'0 0.0
2017-Nov-02 18:46N 31°11' E 122°39'0 0.0
2017-Nov-02 18:28N 31°11' E 122°39'0 0.1
2017-Nov-02 16:37N 31°11' E 122°39'0 0.0
2017-Nov-02 16:28N 31°11' E 122°39'0 0.1
2017-Nov-02 15:58N 31°11' E 122°39'0 0.1
2017-Nov-02 15:25N 31°11' E 122°39'  
Track history (hours):
 
Tides and Currents Weather Stations Pressure Air Temp Water Temp Dewpoint Dewpoint Depression Visibility Wind Speed Wind Dir Waves Ship Positions

Valente Venus

Last reported at 2017-Nov-07 20:50 UTC. Time now 2017-Nov-19 21:52 UTC.
Position N 30°57' E 123°14'.
Warning: this ship's position is 12 days out of date.

Length 161 m; draft 6.5 m.

Type: Cargo ship. MMSI: 354905000.

Date/timePositionNaut miles runAvg speedWind from/ knotsBaromVisibWave heightAir tempDewpointWater temp
2017-Nov-07 20:50N 30°57' E 123°14'513.4
2017-Nov-07 20:27N 30°58' E 123°08'2612.2
2017-Nov-07 18:18N 30°58' E 122°37'412.2
2017-Nov-07 17:57N 30°58' E 122°33'511.2
2017-Nov-07 17:30N 31°00' E 122°27'510.2
2017-Nov-07 17:00N 31°01' E 122°21'5 9.8
2017-Nov-07 16:29N 31°02' E 122°15'4 8.5
2017-Nov-07 15:59N 31°03' E 122°10'3 6.8
2017-Nov-07 15:30N 31°03' E 122°07'5 8.9
2017-Nov-07 15:00N 31°05' E 122°02'4 7.9
2017-Nov-07 14:30N 31°06' E 121°57'510.2
2017-Nov-07 14:00N 31°09' E 121°53'714.4
2017-Nov-07 13:31N 31°14' E 121°47'612.9
2017-Nov-07 13:00N 31°19' E 121°42'510.6
2017-Nov-07 12:31N 31°22' E 121°37'510.4
2017-Nov-07 12:00N 31°25' E 121°31'4 7.9
2017-Nov-07 11:30N 31°27' E 121°28'611.6
2017-Nov-07 11:00N 31°31' E 121°23'713.0
2017-Nov-07 10:30N 31°36' E 121°17'714.0
2017-Nov-07 10:00N 31°41' E 121°11'611.4
2017-Nov-07 09:30N 31°44' E 121°06'611.2
2017-Nov-07 09:00N 31°47' E 121°00'610.0
2017-Nov-07 08:26N 31°49' E 120°54'4 9.9
2017-Nov-07 08:00N 31°54' E 120°53'5 9.6
2017-Nov-07 07:29N 31°58' E 120°51'5 8.6
2017-Nov-07 06:57N 32°01' E 120°46'1210.9
2017-Nov-07 05:53N 32°01' E 120°33'612.8
2017-Nov-07 05:25N 32°02' E 120°25'  
2017-Nov-04 01:55N 32°01' E 120°24'3 7.1
2017-Nov-04 01:28N 32°02' E 120°27'3 7.5
2017-Nov-04 01:00N 32°02' E 120°31'26 7.5
2017-Nov-03 21:33N 31°47' E 120°57'0 9.2
2017-Nov-03 21:30N 31°47' E 120°57'5 8.8
2017-Nov-03 20:59N 31°46' E 121°02'4 8.8
2017-Nov-03 20:30N 31°44' E 121°07'5 9.1
2017-Nov-03 20:00N 31°41' E 121°11'5 9.7
2017-Nov-03 19:30N 31°38' E 121°15'510.0
2017-Nov-03 19:00N 31°34' E 121°19'510.3
2017-Nov-03 18:30N 31°31' E 121°23'510.0
2017-Nov-03 18:00N 31°28' E 121°28'4 7.1
2017-Nov-03 17:30N 31°25' E 121°31'5 9.8
2017-Nov-03 17:00N 31°23' E 121°36'5 9.5
2017-Nov-03 16:30N 31°21' E 121°41'3 7.0
2017-Nov-03 16:00N 31°18' E 121°43'611.2
2017-Nov-03 15:30N 31°14' E 121°48'612.4
2017-Nov-03 15:00N 31°09' E 121°53'611.8
2017-Nov-03 14:30N 31°06' E 121°59'5 9.4
2017-Nov-03 14:00N 31°05' E 122°04'3 5.3
2017-Nov-03 13:30N 31°04' E 122°07'28 4.7
2017-Nov-03 07:28N 31°11' E 122°39'0 0.0
2017-Nov-03 03:46N 31°11' E 122°39'0 0.0
2017-Nov-03 03:28N 31°11' E 122°39'0 0.1
2017-Nov-03 02:58N 31°11' E 122°39'0 0.0
2017-Nov-03 02:25N 31°11' E 122°39'0 0.1
2017-Nov-03 01:55N 31°11' E 122°39'0 0.0
2017-Nov-03 00:49N 31°11' E 122°39'0 0.0
2017-Nov-03 00:16N 31°11' E 122°39'0 0.1
2017-Nov-02 23:49N 31°11' E 122°39'0 0.1
2017-Nov-02 21:25N 31°11' E 122°39'0 0.0
2017-Nov-02 18:46N 31°11' E 122°39'0 0.0
2017-Nov-02 18:28N 31°11' E 122°39'0 0.1
2017-Nov-02 16:37N 31°11' E 122°39'0 0.0
2017-Nov-02 16:28N 31°11' E 122°39'0 0.1
2017-Nov-02 15:58N 31°11' E 122°39'0 0.1
2017-Nov-02 15:25N 31°11' E 122°39'  

Dump ship's entire track history